sensor_id;sensor_type;location;lat;lon;timestamp;P1;durP1;ratioP1;P2;durP2;ratioP2
10311;SDS011;5201;48.776;9.128;2022-09-28T00:01:07;1.17;;;0.50;;
10311;SDS011;5201;48.776;9.128;2022-09-28T00:03:39;0.80;;;0.50;;
10311;SDS011;5201;48.776;9.128;2022-09-28T00:06:05;0.50;;;0.43;;
10311;SDS011;5201;48.776;9.128;2022-09-28T00:08:33;0.50;;;0.50;;
10311;SDS011;5201;48.776;9.128;2022-09-28T00:11:00;1.83;;;0.60;;
10311;SDS011;5201;48.776;9.128;2022-09-28T00:13:26;1.20;;;0.60;;
10311;SDS011;5201;48.776;9.128;2022-09-28T00:15:59;0.50;;;0.40;;
10311;SDS011;5201;48.776;9.128;2022-09-28T00:18:28;0.50;;;0.50;;
10311;SDS011;5201;48.776;9.128;2022-09-28T00:21:02;0.50;;;0.50;;
10311;SDS011;5201;48.776;9.128;2022-09-28T00:23:29;0.60;;;0.47;;
10311;SDS011;5201;48.776;9.128;2022-09-28T00:25:59;0.47;;;0.40;;
10311;SDS011;5201;48.776;9.128;2022-09-28T00:28:26;0.40;;;0.40;;
10311;SDS011;5201;48.776;9.128;2022-09-28T00:30:54;2.07;;;0.60;;
10311;SDS011;5201;48.776;9.128;2022-09-28T00:33:20;3.23;;;0.57;;
10311;SDS011;5201;48.776;9.128;2022-09-28T00:35:46;3.23;;;0.57;;
10311;SDS011;5201;48.776;9.128;2022-09-28T00:38:19;0.43;;;0.43;;
10311;SDS011;5201;48.776;9.128;2022-09-28T00:40:44;1.40;;;0.50;;
10311;SDS011;5201;48.776;9.128;2022-09-28T00:43:19;0.87;;;0.60;;
10311;SDS011;5201;48.776;9.128;2022-09-28T00:45:48;0.50;;;0.50;;
10311;SDS011;5201;48.776;9.128;2022-09-28T00:48:35;0.40;;;0.40;;
10311;SDS011;5201;48.776;9.128;2022-09-28T00:51:04;1.80;;;0.50;;
10311;SDS011;5201;48.776;9.128;2022-09-28T00:53:33;0.50;;;0.50;;
10311;SDS011;5201;48.776;9.128;2022-09-28T00:56:03;0.73;;;0.47;;
10311;SDS011;5201;48.776;9.128;2022-09-28T00:58:35;2.00;;;0.47;;
10311;SDS011;5201;48.776;9.128;2022-09-28T01:01:09;0.47;;;0.47;;
10311;SDS011;5201;48.776;9.128;2022-09-28T01:03:36;2.47;;;0.67;;
10311;SDS011;5201;48.776;9.128;2022-09-28T01:06:05;0.53;;;0.53;;
10311;SDS011;5201;48.776;9.128;2022-09-28T01:08:32;0.50;;;0.50;;
10311;SDS011;5201;48.776;9.128;2022-09-28T01:11:00;1.27;;;0.70;;
10311;SDS011;5201;48.776;9.128;2022-09-28T01:13:26;1.90;;;0.67;;
10311;SDS011;5201;48.776;9.128;2022-09-28T01:16:55;0.40;;;0.40;;
10311;SDS011;5201;48.776;9.128;2022-09-28T01:21:54;0.40;;;0.40;;
10311;SDS011;5201;48.776;9.128;2022-09-28T01:24:44;0.50;;;0.50;;
10311;SDS011;5201;48.776;9.128;2022-09-28T01:30:07;1.33;;;0.57;;
10311;SDS011;5201;48.776;9.128;2022-09-28T01:32:37;0.97;;;0.30;;
10311;SDS011;5201;48.776;9.128;2022-09-28T01:35:07;0.50;;;0.50;;
10311;SDS011;5201;48.776;9.128;2022-09-28T01:38:24;0.87;;;0.47;;
10311;SDS011;5201;48.776;9.128;2022-09-28T01:40:34;2.20;;;0.70;;
10311;SDS011;5201;48.776;9.128;2022-09-28T01:43:03;0.60;;;0.60;;
10311;SDS011;5201;48.776;9.128;2022-09-28T01:45:47;1.70;;;0.63;;
10311;SDS011;5201;48.776;9.128;2022-09-28T01:48:21;2.03;;;0.60;;
10311;SDS011;5201;48.776;9.128;2022-09-28T01:50:53;0.57;;;0.50;;
10311;SDS011;5201;48.776;9.128;2022-09-28T01:53:24;2.43;;;0.50;;
10311;SDS011;5201;48.776;9.128;2022-09-28T01:55:58;2.37;;;0.70;;
10311;SDS011;5201;48.776;9.128;2022-09-28T02:01:17;0.93;;;0.50;;
10311;SDS011;5201;48.776;9.128;2022-09-28T02:04:21;1.43;;;1.33;;
10311;SDS011;5201;48.776;9.128;2022-09-28T02:07:05;10.90;;;0.83;;
10311;SDS011;5201;48.776;9.128;2022-09-28T02:09:35;1.87;;;0.60;;
10311;SDS011;5201;48.776;9.128;2022-09-28T02:12:19;0.50;;;0.50;;
10311;SDS011;5201;48.776;9.128;2022-09-28T02:14:48;2.30;;;0.60;;
10311;SDS011;5201;48.776;9.128;2022-09-28T02:17:19;3.83;;;0.50;;
10311;SDS011;5201;48.776;9.128;2022-09-28T02:19:44;1.83;;;0.60;;
10311;SDS011;5201;48.776;9.128;2022-09-28T02:30:08;3.87;;;0.57;;
10311;SDS011;5201;48.776;9.128;2022-09-28T02:32:35;3.10;;;0.63;;
10311;SDS011;5201;48.776;9.128;2022-09-28T02:35:11;1.40;;;0.70;;
10311;SDS011;5201;48.776;9.128;2022-09-28T02:37:39;1.70;;;0.57;;
10311;SDS011;5201;48.776;9.128;2022-09-28T02:40:15;1.87;;;1.07;;
10311;SDS011;5201;48.776;9.128;2022-09-28T02:56:37;0.60;;;0.50;;
10311;SDS011;5201;48.776;9.128;2022-09-28T03:01:45;2.63;;;0.50;;
10311;SDS011;5201;48.776;9.128;2022-09-28T03:06:54;1.27;;;0.60;;
10311;SDS011;5201;48.776;9.128;2022-09-28T03:12:37;3.97;;;1.03;;
10311;SDS011;5201;48.776;9.128;2022-09-28T03:17:32;3.17;;;1.03;;
10311;SDS011;5201;48.776;9.128;2022-09-28T03:19:57;2.70;;;0.60;;
10311;SDS011;5201;48.776;9.128;2022-09-28T03:22:23;1.23;;;0.70;;
10311;SDS011;5201;48.776;9.128;2022-09-28T03:24:48;1.67;;;0.70;;
10311;SDS011;5201;48.776;9.128;2022-09-28T03:27:14;3.93;;;0.50;;
10311;SDS011;5201;48.776;9.128;2022-09-28T03:29:39;1.90;;;0.53;;
10311;SDS011;5201;48.776;9.128;2022-09-28T03:32:05;4.37;;;0.70;;
10311;SDS011;5201;48.776;9.128;2022-09-28T03:34:30;6.40;;;0.80;;
10311;SDS011;5201;48.776;9.128;2022-09-28T03:36:56;1.83;;;0.80;;
10311;SDS011;5201;48.776;9.128;2022-09-28T03:39:21;2.20;;;1.67;;
10311;SDS011;5201;48.776;9.128;2022-09-28T03:41:47;2.50;;;0.60;;
10311;SDS011;5201;48.776;9.128;2022-09-28T03:44:13;1.87;;;0.70;;
10311;SDS011;5201;48.776;9.128;2022-09-28T03:46:38;1.43;;;0.60;;
10311;SDS011;5201;48.776;9.128;2022-09-28T03:49:04;3.20;;;0.70;;
10311;SDS011;5201;48.776;9.128;2022-09-28T03:51:29;0.63;;;0.50;;
10311;SDS011;5201;48.776;9.128;2022-09-28T03:53:55;0.97;;;0.50;;
10311;SDS011;5201;48.776;9.128;2022-09-28T03:56:21;1.03;;;0.60;;
10311;SDS011;5201;48.776;9.128;2022-09-28T03:58:46;2.00;;;0.63;;
10311;SDS011;5201;48.776;9.128;2022-09-28T04:01:13;5.07;;;0.57;;
10311;SDS011;5201;48.776;9.128;2022-09-28T04:03:42;1.80;;;0.57;;
10311;SDS011;5201;48.776;9.128;2022-09-28T04:06:07;3.20;;;0.63;;
10311;SDS011;5201;48.776;9.128;2022-09-28T04:08:33;0.40;;;0.40;;
10311;SDS011;5201;48.776;9.128;2022-09-28T04:10:59;1.37;;;0.70;;
10311;SDS011;5201;48.776;9.128;2022-09-28T04:13:26;1.20;;;0.50;;
10311;SDS011;5201;48.776;9.128;2022-09-28T04:15:55;1.70;;;0.43;;
10311;SDS011;5201;48.776;9.128;2022-09-28T04:18:22;1.53;;;0.63;;
10311;SDS011;5201;48.776;9.128;2022-09-28T04:21:01;2.30;;;0.57;;
10311;SDS011;5201;48.776;9.128;2022-09-28T04:23:30;2.30;;;0.40;;
10311;SDS011;5201;48.776;9.128;2022-09-28T04:25:58;0.40;;;0.37;;
10311;SDS011;5201;48.776;9.128;2022-09-28T04:28:24;2.83;;;0.50;;
10311;SDS011;5201;48.776;9.128;2022-09-28T04:31:12;2.90;;;0.40;;
10311;SDS011;5201;48.776;9.128;2022-09-28T04:33:41;0.47;;;0.40;;
10311;SDS011;5201;48.776;9.128;2022-09-28T04:36:06;1.40;;;0.60;;
10311;SDS011;5201;48.776;9.128;2022-09-28T04:38:33;1.60;;;0.40;;
10311;SDS011;5201;48.776;9.128;2022-09-28T04:40:59;0.97;;;0.40;;
10311;SDS011;5201;48.776;9.128;2022-09-28T04:43:25;0.30;;;0.30;;
10311;SDS011;5201;48.776;9.128;2022-09-28T04:45:50;1.10;;;0.33;;
10311;SDS011;5201;48.776;9.128;2022-09-28T04:48:16;0.60;;;0.40;;
10311;SDS011;5201;48.776;9.128;2022-09-28T04:50:41;2.10;;;0.50;;
10311;SDS011;5201;48.776;9.128;2022-09-28T04:53:07;0.40;;;0.40;;
10311;SDS011;5201;48.776;9.128;2022-09-28T04:55:33;0.60;;;0.40;;
10311;SDS011;5201;48.776;9.128;2022-09-28T04:57:58;0.50;;;0.30;;
10311;SDS011;5201;48.776;9.128;2022-09-28T05:00:30;2.70;;;0.50;;
10311;SDS011;5201;48.776;9.128;2022-09-28T05:02:59;0.73;;;0.40;;
10311;SDS011;5201;48.776;9.128;2022-09-28T05:05:25;0.60;;;0.50;;
10311;SDS011;5201;48.776;9.128;2022-09-28T05:07:51;0.97;;;0.67;;
10311;SDS011;5201;48.776;9.128;2022-09-28T05:10:16;1.37;;;0.40;;
10311;SDS011;5201;48.776;9.128;2022-09-28T05:12:43;2.73;;;0.87;;
10311;SDS011;5201;48.776;9.128;2022-09-28T05:15:09;0.37;;;0.30;;
10311;SDS011;5201;48.776;9.128;2022-09-28T05:17:35;0.97;;;0.43;;
10311;SDS011;5201;48.776;9.128;2022-09-28T05:20:01;0.73;;;0.30;;
10311;SDS011;5201;48.776;9.128;2022-09-28T05:22:27;0.40;;;0.40;;
10311;SDS011;5201;48.776;9.128;2022-09-28T05:24:53;0.93;;;0.30;;
10311;SDS011;5201;48.776;9.128;2022-09-28T05:27:19;0.70;;;0.30;;
10311;SDS011;5201;48.776;9.128;2022-09-28T05:29:45;1.00;;;0.43;;
10311;SDS011;5201;48.776;9.128;2022-09-28T05:32:10;1.93;;;0.50;;
10311;SDS011;5201;48.776;9.128;2022-09-28T05:34:36;0.93;;;0.37;;
10311;SDS011;5201;48.776;9.128;2022-09-28T05:37:02;1.37;;;0.47;;
10311;SDS011;5201;48.776;9.128;2022-09-28T05:39:27;0.87;;;0.40;;
10311;SDS011;5201;48.776;9.128;2022-09-28T05:41:53;4.80;;;0.33;;
10311;SDS011;5201;48.776;9.128;2022-09-28T05:44:21;0.83;;;0.33;;
10311;SDS011;5201;48.776;9.128;2022-09-28T05:46:47;0.37;;;0.30;;
10311;SDS011;5201;48.776;9.128;2022-09-28T05:49:13;0.87;;;0.43;;
10311;SDS011;5201;48.776;9.128;2022-09-28T05:51:38;2.33;;;0.67;;
10311;SDS011;5201;48.776;9.128;2022-09-28T05:54:04;1.07;;;0.57;;
10311;SDS011;5201;48.776;9.128;2022-09-28T05:56:29;1.83;;;0.50;;
10311;SDS011;5201;48.776;9.128;2022-09-28T05:58:56;1.13;;;1.03;;
10311;SDS011;5201;48.776;9.128;2022-09-28T06:01:22;1.13;;;0.67;;
10311;SDS011;5201;48.776;9.128;2022-09-28T06:03:48;1.10;;;0.70;;
10311;SDS011;5201;48.776;9.128;2022-09-28T06:06:13;0.67;;;0.40;;
10311;SDS011;5201;48.776;9.128;2022-09-28T06:08:39;0.50;;;0.50;;
10311;SDS011;5201;48.776;9.128;2022-09-28T06:11:07;0.90;;;0.50;;
10311;SDS011;5201;48.776;9.128;2022-09-28T06:13:36;0.60;;;0.60;;
10311;SDS011;5201;48.776;9.128;2022-09-28T06:16:03;1.03;;;0.60;;
10311;SDS011;5201;48.776;9.128;2022-09-28T06:18:31;1.43;;;0.70;;
10311;SDS011;5201;48.776;9.128;2022-09-28T06:20:57;1.47;;;0.70;;
10311;SDS011;5201;48.776;9.128;2022-09-28T06:23:22;0.60;;;0.60;;
10311;SDS011;5201;48.776;9.128;2022-09-28T06:25:48;0.53;;;0.53;;
10311;SDS011;5201;48.776;9.128;2022-09-28T06:28:13;1.60;;;0.70;;
10311;SDS011;5201;48.776;9.128;2022-09-28T06:30:39;0.83;;;0.70;;
10311;SDS011;5201;48.776;9.128;2022-09-28T06:33:06;0.90;;;0.80;;
10311;SDS011;5201;48.776;9.128;2022-09-28T06:35:34;0.50;;;0.50;;
10311;SDS011;5201;48.776;9.128;2022-09-28T06:38:00;0.70;;;0.70;;
10311;SDS011;5201;48.776;9.128;2022-09-28T06:40:26;3.00;;;0.80;;
10311;SDS011;5201;48.776;9.128;2022-09-28T06:42:59;0.97;;;0.73;;
10311;SDS011;5201;48.776;9.128;2022-09-28T06:45:27;0.60;;;0.60;;
10311;SDS011;5201;48.776;9.128;2022-09-28T06:50:22;2.00;;;0.50;;
10311;SDS011;5201;48.776;9.128;2022-09-28T06:52:51;2.47;;;0.80;;
10311;SDS011;5201;48.776;9.128;2022-09-28T06:55:18;0.87;;;0.77;;
10311;SDS011;5201;48.776;9.128;2022-09-28T06:57:44;1.33;;;0.77;;
10311;SDS011;5201;48.776;9.128;2022-09-28T07:00:10;1.90;;;0.70;;
10311;SDS011;5201;48.776;9.128;2022-09-28T07:02:36;4.53;;;1.10;;
10311;SDS011;5201;48.776;9.128;2022-09-28T07:05:02;2.67;;;0.90;;
10311;SDS011;5201;48.776;9.128;2022-09-28T07:07:28;2.73;;;1.00;;
10311;SDS011;5201;48.776;9.128;2022-09-28T07:09:55;2.17;;;0.80;;
10311;SDS011;5201;48.776;9.128;2022-09-28T07:12:21;2.73;;;0.73;;
10311;SDS011;5201;48.776;9.128;2022-09-28T07:14:48;7.20;;;1.37;;
10311;SDS011;5201;48.776;9.128;2022-09-28T07:17:14;1.30;;;1.10;;
10311;SDS011;5201;48.776;9.128;2022-09-28T07:19:40;2.53;;;1.03;;
10311;SDS011;5201;48.776;9.128;2022-09-28T07:22:06;1.23;;;0.70;;
10311;SDS011;5201;48.776;9.128;2022-09-28T07:24:31;1.43;;;0.90;;
10311;SDS011;5201;48.776;9.128;2022-09-28T07:26:57;2.30;;;1.07;;
10311;SDS011;5201;48.776;9.128;2022-09-28T07:29:23;0.80;;;0.80;;
10311;SDS011;5201;48.776;9.128;2022-09-28T07:31:51;1.83;;;0.80;;
10311;SDS011;5201;48.776;9.128;2022-09-28T07:34:17;2.40;;;0.90;;
10311;SDS011;5201;48.776;9.128;2022-09-28T07:36:47;1.10;;;0.80;;
10311;SDS011;5201;48.776;9.128;2022-09-28T07:39:12;1.60;;;0.80;;
10311;SDS011;5201;48.776;9.128;2022-09-28T07:41:38;1.50;;;0.83;;
10311;SDS011;5201;48.776;9.128;2022-09-28T07:44:03;1.87;;;1.00;;
10311;SDS011;5201;48.776;9.128;2022-09-28T07:46:33;2.20;;;0.90;;
10311;SDS011;5201;48.776;9.128;2022-09-28T07:49:00;2.00;;;0.80;;
10311;SDS011;5201;48.776;9.128;2022-09-28T07:51:29;2.27;;;1.20;;
10311;SDS011;5201;48.776;9.128;2022-09-28T07:53:55;1.23;;;0.83;;
10311;SDS011;5201;48.776;9.128;2022-09-28T07:56:20;0.70;;;0.70;;
10311;SDS011;5201;48.776;9.128;2022-09-28T07:58:46;1.97;;;0.80;;
10311;SDS011;5201;48.776;9.128;2022-09-28T08:01:12;1.43;;;0.63;;
10311;SDS011;5201;48.776;9.128;2022-09-28T08:03:42;2.67;;;1.00;;
10311;SDS011;5201;48.776;9.128;2022-09-28T08:06:12;1.20;;;0.87;;
10311;SDS011;5201;48.776;9.128;2022-09-28T08:08:40;3.17;;;0.90;;
10311;SDS011;5201;48.776;9.128;2022-09-28T08:11:09;0.80;;;0.80;;
10311;SDS011;5201;48.776;9.128;2022-09-28T08:13:36;1.33;;;0.87;;
10311;SDS011;5201;48.776;9.128;2022-09-28T08:16:03;1.67;;;0.80;;
10311;SDS011;5201;48.776;9.128;2022-09-28T08:18:30;4.00;;;1.10;;
10311;SDS011;5201;48.776;9.128;2022-09-28T08:20:56;3.00;;;0.97;;
10311;SDS011;5201;48.776;9.128;2022-09-28T08:23:40;4.23;;;0.80;;
10311;SDS011;5201;48.776;9.128;2022-09-28T08:26:06;1.77;;;0.90;;
10311;SDS011;5201;48.776;9.128;2022-09-28T08:28:32;2.47;;;0.90;;
10311;SDS011;5201;48.776;9.128;2022-09-28T08:30:59;3.77;;;1.07;;
10311;SDS011;5201;48.776;9.128;2022-09-28T08:33:25;1.43;;;0.93;;
10311;SDS011;5201;48.776;9.128;2022-09-28T08:35:58;1.97;;;0.80;;
10311;SDS011;5201;48.776;9.128;2022-09-28T08:38:25;2.33;;;0.60;;
10311;SDS011;5201;48.776;9.128;2022-09-28T08:46:37;2.73;;;1.13;;
10311;SDS011;5201;48.776;9.128;2022-09-28T08:51:51;1.20;;;1.07;;
10311;SDS011;5201;48.776;9.128;2022-09-28T08:57:15;0.87;;;0.83;;
10311;SDS011;5201;48.776;9.128;2022-09-28T08:59:57;1.13;;;0.90;;
10311;SDS011;5201;48.776;9.128;2022-09-28T09:02:29;2.67;;;0.90;;
10311;SDS011;5201;48.776;9.128;2022-09-28T09:04:57;4.00;;;1.27;;
10311;SDS011;5201;48.776;9.128;2022-09-28T09:10:35;0.70;;;0.70;;
10311;SDS011;5201;48.776;9.128;2022-09-28T09:19:08;1.40;;;0.93;;
10311;SDS011;5201;48.776;9.128;2022-09-28T09:21:39;2.63;;;0.90;;
10311;SDS011;5201;48.776;9.128;2022-09-28T09:29:36;2.40;;;0.90;;
10311;SDS011;5201;48.776;9.128;2022-09-28T09:32:16;3.50;;;1.10;;
10311;SDS011;5201;48.776;9.128;2022-09-28T09:34:54;7.73;;;1.07;;
10311;SDS011;5201;48.776;9.128;2022-09-28T09:40:48;2.57;;;0.97;;
10311;SDS011;5201;48.776;9.128;2022-09-28T09:46:31;1.20;;;0.80;;
10311;SDS011;5201;48.776;9.128;2022-09-28T09:49:11;1.77;;;1.13;;
10311;SDS011;5201;48.776;9.128;2022-09-28T09:54:41;7.10;;;1.43;;
10311;SDS011;5201;48.776;9.128;2022-09-28T09:57:31;3.57;;;1.03;;
10311;SDS011;5201;48.776;9.128;2022-09-28T10:00:03;1.47;;;0.90;;
10311;SDS011;5201;48.776;9.128;2022-09-28T10:02:37;2.73;;;1.30;;
10311;SDS011;5201;48.776;9.128;2022-09-28T10:05:06;3.07;;;1.17;;
10311;SDS011;5201;48.776;9.128;2022-09-28T10:12:51;3.37;;;1.10;;
10311;SDS011;5201;48.776;9.128;2022-09-28T10:15:19;1.53;;;0.93;;
10311;SDS011;5201;48.776;9.128;2022-09-28T10:17:53;4.60;;;1.27;;
10311;SDS011;5201;48.776;9.128;2022-09-28T10:20:21;1.47;;;1.07;;
10311;SDS011;5201;48.776;9.128;2022-09-28T10:22:52;1.80;;;0.93;;
10311;SDS011;5201;48.776;9.128;2022-09-28T10:25:21;1.10;;;1.00;;
10311;SDS011;5201;48.776;9.128;2022-09-28T10:27:48;3.80;;;0.90;;
10311;SDS011;5201;48.776;9.128;2022-09-28T10:30:20;1.10;;;1.00;;
10311;SDS011;5201;48.776;9.128;2022-09-28T10:32:51;3.17;;;1.00;;
10311;SDS011;5201;48.776;9.128;2022-09-28T10:35:26;2.50;;;0.90;;
10311;SDS011;5201;48.776;9.128;2022-09-28T10:43:02;1.00;;;0.70;;
10311;SDS011;5201;48.776;9.128;2022-09-28T10:45:32;3.90;;;0.97;;
10311;SDS011;5201;48.776;9.128;2022-09-28T10:48:02;1.10;;;1.00;;
10311;SDS011;5201;48.776;9.128;2022-09-28T10:50:30;1.57;;;0.90;;
10311;SDS011;5201;48.776;9.128;2022-09-28T10:55:54;1.13;;;0.63;;
10311;SDS011;5201;48.776;9.128;2022-09-28T10:58:26;2.93;;;0.70;;
10311;SDS011;5201;48.776;9.128;2022-09-28T11:01:02;2.60;;;1.00;;
10311;SDS011;5201;48.776;9.128;2022-09-28T11:03:33;1.37;;;0.90;;
10311;SDS011;5201;48.776;9.128;2022-09-28T11:06:11;2.10;;;0.93;;
10311;SDS011;5201;48.776;9.128;2022-09-28T11:08:37;0.70;;;0.60;;
10311;SDS011;5201;48.776;9.128;2022-09-28T11:11:08;1.27;;;0.70;;
10311;SDS011;5201;48.776;9.128;2022-09-28T11:13:43;3.13;;;0.60;;
10311;SDS011;5201;48.776;9.128;2022-09-28T11:16:21;1.77;;;0.70;;
10311;SDS011;5201;48.776;9.128;2022-09-28T11:19:02;1.50;;;0.87;;
10311;SDS011;5201;48.776;9.128;2022-09-28T11:21:30;4.23;;;0.70;;
10311;SDS011;5201;48.776;9.128;2022-09-28T11:24:16;0.90;;;0.63;;
10311;SDS011;5201;48.776;9.128;2022-09-28T11:26:48;1.77;;;1.27;;
10311;SDS011;5201;48.776;9.128;2022-09-28T11:32:04;2.77;;;0.87;;
10311;SDS011;5201;48.776;9.128;2022-09-28T11:34:31;4.20;;;1.10;;
10311;SDS011;5201;48.776;9.128;2022-09-28T11:37:07;3.53;;;0.83;;
10311;SDS011;5201;48.776;9.128;2022-09-28T11:47:55;4.00;;;1.03;;
10311;SDS011;5201;48.776;9.128;2022-09-28T11:50:26;0.90;;;0.53;;
10311;SDS011;5201;48.776;9.128;2022-09-28T11:53:19;1.10;;;0.57;;
10311;SDS011;5201;48.776;9.128;2022-09-28T11:56:02;2.40;;;0.77;;
10311;SDS011;5201;48.776;9.128;2022-09-28T11:58:36;5.27;;;1.03;;
10311;SDS011;5201;48.776;9.128;2022-09-28T12:01:07;2.93;;;1.60;;
10311;SDS011;5201;48.776;9.128;2022-09-28T12:03:54;1.80;;;0.60;;
10311;SDS011;5201;48.776;9.128;2022-09-28T12:06:30;1.97;;;0.40;;
10311;SDS011;5201;48.776;9.128;2022-09-28T12:09:04;1.50;;;0.67;;
10311;SDS011;5201;48.776;9.128;2022-09-28T12:11:39;1.53;;;0.50;;
10311;SDS011;5201;48.776;9.128;2022-09-28T12:14:09;2.00;;;0.60;;
10311;SDS011;5201;48.776;9.128;2022-09-28T12:16:48;3.60;;;0.53;;
10311;SDS011;5201;48.776;9.128;2022-09-28T12:19:24;2.43;;;0.80;;
10311;SDS011;5201;48.776;9.128;2022-09-28T12:21:55;0.97;;;0.57;;
10311;SDS011;5201;48.776;9.128;2022-09-28T12:27:06;1.87;;;0.60;;
10311;SDS011;5201;48.776;9.128;2022-09-28T12:29:42;0.80;;;0.50;;
10311;SDS011;5201;48.776;9.128;2022-09-28T12:35:04;0.50;;;0.50;;
10311;SDS011;5201;48.776;9.128;2022-09-28T12:40:36;1.93;;;0.50;;
10311;SDS011;5201;48.776;9.128;2022-09-28T12:46:21;3.73;;;0.83;;
10311;SDS011;5201;48.776;9.128;2022-09-28T12:54:25;0.70;;;0.50;;
10311;SDS011;5201;48.776;9.128;2022-09-28T12:57:29;0.47;;;0.47;;
10311;SDS011;5201;48.776;9.128;2022-09-28T13:00:14;2.30;;;0.50;;
10311;SDS011;5201;48.776;9.128;2022-09-28T13:08:12;0.50;;;0.40;;
10311;SDS011;5201;48.776;9.128;2022-09-28T13:21:17;1.60;;;0.60;;
10311;SDS011;5201;48.776;9.128;2022-09-28T13:23:58;1.07;;;0.47;;
10311;SDS011;5201;48.776;9.128;2022-09-28T13:26:33;0.70;;;0.50;;
10311;SDS011;5201;48.776;9.128;2022-09-28T13:29:15;2.60;;;0.60;;
10311;SDS011;5201;48.776;9.128;2022-09-28T13:31:55;1.17;;;0.50;;
10311;SDS011;5201;48.776;9.128;2022-09-28T13:34:27;0.40;;;0.40;;
10311;SDS011;5201;48.776;9.128;2022-09-28T13:42:09;1.80;;;0.57;;
10311;SDS011;5201;48.776;9.128;2022-09-28T13:58:27;0.70;;;0.57;;
10311;SDS011;5201;48.776;9.128;2022-09-28T14:01:02;1.00;;;0.50;;
10311;SDS011;5201;48.776;9.128;2022-09-28T14:06:05;0.40;;;0.37;;
10311;SDS011;5201;48.776;9.128;2022-09-28T14:14:03;1.10;;;0.50;;
10311;SDS011;5201;48.776;9.128;2022-09-28T14:16:35;1.90;;;1.00;;
10311;SDS011;5201;48.776;9.128;2022-09-28T14:30:46;3.23;;;0.87;;
10311;SDS011;5201;48.776;9.128;2022-09-28T14:35:53;2.83;;;0.67;;
10311;SDS011;5201;48.776;9.128;2022-09-28T14:38:30;1.93;;;0.60;;
10311;SDS011;5201;48.776;9.128;2022-09-28T14:41:31;1.70;;;1.60;;
10311;SDS011;5201;48.776;9.128;2022-09-28T14:44:12;1.10;;;0.60;;
10311;SDS011;5201;48.776;9.128;2022-09-28T14:46:43;0.70;;;0.40;;
10311;SDS011;5201;48.776;9.128;2022-09-28T14:54:19;5.23;;;0.67;;
10311;SDS011;5201;48.776;9.128;2022-09-28T15:01:54;0.40;;;0.40;;
10311;SDS011;5201;48.776;9.128;2022-09-28T15:04:25;1.73;;;0.53;;
10311;SDS011;5201;48.776;9.128;2022-09-28T15:06:53;0.40;;;0.40;;
10311;SDS011;5201;48.776;9.128;2022-09-28T15:17:09;2.53;;;0.40;;
10311;SDS011;5201;48.776;9.128;2022-09-28T15:22:16;1.70;;;0.67;;
10311;SDS011;5201;48.776;9.128;2022-09-28T15:24:55;0.60;;;0.60;;
10311;SDS011;5201;48.776;9.128;2022-09-28T15:27:23;0.57;;;0.50;;
10311;SDS011;5201;48.776;9.128;2022-09-28T15:29:59;0.50;;;0.50;;
10311;SDS011;5201;48.776;9.128;2022-09-28T15:32:26;1.53;;;0.40;;
10311;SDS011;5201;48.776;9.128;2022-09-28T15:34:53;0.40;;;0.40;;
10311;SDS011;5201;48.776;9.128;2022-09-28T15:39:51;0.70;;;0.53;;
10311;SDS011;5201;48.776;9.128;2022-09-28T15:42:18;3.07;;;0.40;;
10311;SDS011;5201;48.776;9.128;2022-09-28T15:45:04;1.63;;;0.60;;
10311;SDS011;5201;48.776;9.128;2022-09-28T15:48:19;0.63;;;0.40;;
10311;SDS011;5201;48.776;9.128;2022-09-28T15:51:05;1.23;;;0.43;;
10311;SDS011;5201;48.776;9.128;2022-09-28T15:53:40;0.80;;;0.60;;
10311;SDS011;5201;48.776;9.128;2022-09-28T15:56:26;1.37;;;0.60;;
10311;SDS011;5201;48.776;9.128;2022-09-28T15:59:10;4.77;;;0.60;;
10311;SDS011;5201;48.776;9.128;2022-09-28T16:12:53;1.23;;;0.60;;
10311;SDS011;5201;48.776;9.128;2022-09-28T16:15:26;0.93;;;0.60;;
10311;SDS011;5201;48.776;9.128;2022-09-28T16:17:59;0.50;;;0.50;;
10311;SDS011;5201;48.776;9.128;2022-09-28T16:20:42;0.70;;;0.70;;
10311;SDS011;5201;48.776;9.128;2022-09-28T16:25:51;1.47;;;0.70;;
10311;SDS011;5201;48.776;9.128;2022-09-28T16:28:24;0.60;;;0.40;;
10311;SDS011;5201;48.776;9.128;2022-09-28T16:31:10;2.83;;;0.50;;
10311;SDS011;5201;48.776;9.128;2022-09-28T16:34:08;1.43;;;0.57;;
10311;SDS011;5201;48.776;9.128;2022-09-28T16:36:42;0.83;;;0.47;;
10311;SDS011;5201;48.776;9.128;2022-09-28T16:39:12;1.63;;;0.63;;
10311;SDS011;5201;48.776;9.128;2022-09-28T16:41:43;1.50;;;0.57;;
10311;SDS011;5201;48.776;9.128;2022-09-28T16:44:21;2.10;;;1.03;;
10311;SDS011;5201;48.776;9.128;2022-09-28T16:46:52;1.30;;;0.53;;
10311;SDS011;5201;48.776;9.128;2022-09-28T16:49:19;1.00;;;0.90;;
10311;SDS011;5201;48.776;9.128;2022-09-28T16:51:47;2.97;;;0.80;;
10311;SDS011;5201;48.776;9.128;2022-09-28T16:57:02;0.80;;;0.80;;
10311;SDS011;5201;48.776;9.128;2022-09-28T16:59:29;1.20;;;0.60;;
10311;SDS011;5201;48.776;9.128;2022-09-28T17:01:55;0.50;;;0.50;;
10311;SDS011;5201;48.776;9.128;2022-09-28T17:04:22;0.40;;;0.40;;
10311;SDS011;5201;48.776;9.128;2022-09-28T17:06:51;1.00;;;0.77;;
10311;SDS011;5201;48.776;9.128;2022-09-28T17:09:19;3.83;;;0.60;;
10311;SDS011;5201;48.776;9.128;2022-09-28T17:11:46;3.33;;;0.67;;
10311;SDS011;5201;48.776;9.128;2022-09-28T17:14:11;1.10;;;0.70;;
10311;SDS011;5201;48.776;9.128;2022-09-28T17:16:38;1.90;;;0.80;;
10311;SDS011;5201;48.776;9.128;2022-09-28T17:19:26;1.33;;;0.70;;
10311;SDS011;5201;48.776;9.128;2022-09-28T17:21:52;1.43;;;0.60;;
10311;SDS011;5201;48.776;9.128;2022-09-28T17:24:18;1.40;;;0.70;;
10311;SDS011;5201;48.776;9.128;2022-09-28T17:26:44;2.87;;;1.77;;
10311;SDS011;5201;48.776;9.128;2022-09-28T17:29:12;4.90;;;1.73;;
10311;SDS011;5201;48.776;9.128;2022-09-28T17:31:39;2.87;;;1.50;;
10311;SDS011;5201;48.776;9.128;2022-09-28T17:34:09;5.77;;;1.70;;
10311;SDS011;5201;48.776;9.128;2022-09-28T17:36:36;6.93;;;1.80;;
10311;SDS011;5201;48.776;9.128;2022-09-28T17:39:02;5.20;;;2.80;;
10311;SDS011;5201;48.776;9.128;2022-09-28T17:41:28;8.07;;;2.37;;
10311;SDS011;5201;48.776;9.128;2022-09-28T17:43:54;5.37;;;2.60;;
10311;SDS011;5201;48.776;9.128;2022-09-28T17:48:45;5.93;;;3.10;;
10311;SDS011;5201;48.776;9.128;2022-09-28T17:51:12;9.30;;;3.83;;
10311;SDS011;5201;48.776;9.128;2022-09-28T17:53:38;6.40;;;3.33;;
10311;SDS011;5201;48.776;9.128;2022-09-28T17:56:04;5.27;;;2.03;;
10311;SDS011;5201;48.776;9.128;2022-09-28T17:58:29;1.80;;;1.33;;
10311;SDS011;5201;48.776;9.128;2022-09-28T18:00:55;2.77;;;1.73;;
10311;SDS011;5201;48.776;9.128;2022-09-28T18:03:21;2.40;;;1.27;;
10311;SDS011;5201;48.776;9.128;2022-09-28T18:05:49;3.93;;;1.87;;
10311;SDS011;5201;48.776;9.128;2022-09-28T18:08:23;3.77;;;2.50;;
10311;SDS011;5201;48.776;9.128;2022-09-28T18:10:48;3.03;;;1.90;;
10311;SDS011;5201;48.776;9.128;2022-09-28T18:13:14;5.67;;;2.07;;
10311;SDS011;5201;48.776;9.128;2022-09-28T18:15:40;2.83;;;1.80;;
10311;SDS011;5201;48.776;9.128;2022-09-28T18:18:06;4.67;;;1.30;;
10311;SDS011;5201;48.776;9.128;2022-09-28T18:20:36;2.73;;;1.93;;
10311;SDS011;5201;48.776;9.128;2022-09-28T18:23:02;2.10;;;1.00;;
10311;SDS011;5201;48.776;9.128;2022-09-28T18:25:28;1.80;;;1.10;;
10311;SDS011;5201;48.776;9.128;2022-09-28T18:27:54;2.53;;;1.23;;
10311;SDS011;5201;48.776;9.128;2022-09-28T18:30:22;3.73;;;1.40;;
10311;SDS011;5201;48.776;9.128;2022-09-28T18:32:48;2.53;;;1.67;;
10311;SDS011;5201;48.776;9.128;2022-09-28T18:35:14;9.83;;;3.70;;
10311;SDS011;5201;48.776;9.128;2022-09-28T18:37:40;5.10;;;2.30;;
10311;SDS011;5201;48.776;9.128;2022-09-28T18:40:06;1.50;;;1.40;;
10311;SDS011;5201;48.776;9.128;2022-09-28T18:42:34;4.47;;;1.50;;
10311;SDS011;5201;48.776;9.128;2022-09-28T18:45:03;5.17;;;2.77;;
10311;SDS011;5201;48.776;9.128;2022-09-28T18:47:30;2.07;;;1.87;;
10311;SDS011;5201;48.776;9.128;2022-09-28T18:49:57;3.80;;;2.10;;
10311;SDS011;5201;48.776;9.128;2022-09-28T18:52:23;4.03;;;1.80;;
10311;SDS011;5201;48.776;9.128;2022-09-28T18:54:49;2.70;;;1.30;;
10311;SDS011;5201;48.776;9.128;2022-09-28T18:57:15;4.43;;;2.70;;
10311;SDS011;5201;48.776;9.128;2022-09-28T18:59:41;2.27;;;1.60;;